sensor_id;sensor_type;location;lat;lon;timestamp;temperature;humidity
52030;DHT22;38043;53.224;6.580;2023-04-09T00:01:08;8.40;99.90
52030;DHT22;38043;53.224;6.580;2023-04-09T00:03:34;8.50;99.90
52030;DHT22;38043;53.224;6.580;2023-04-09T00:06:01;8.40;99.90
52030;DHT22;38043;53.224;6.580;2023-04-09T00:08:26;8.40;99.90
52030;DHT22;38043;53.224;6.580;2023-04-09T00:10:53;8.40;99.90
52030;DHT22;38043;53.224;6.580;2023-04-09T00:13:20;8.40;99.90
52030;DHT22;38043;53.224;6.580;2023-04-09T00:15:46;8.40;99.90
52030;DHT22;38043;53.224;6.580;2023-04-09T00:18:12;8.40;99.90
52030;DHT22;38043;53.224;6.580;2023-04-09T00:20:38;8.50;99.90
52030;DHT22;38043;53.224;6.580;2023-04-09T00:23:04;8.40;99.90
52030;DHT22;38043;53.224;6.580;2023-04-09T00:25:30;8.40;99.90
52030;DHT22;38043;53.224;6.580;2023-04-09T00:27:56;8.40;99.90
52030;DHT22;38043;53.224;6.580;2023-04-09T00:30:22;8.40;99.90
52030;DHT22;38043;53.224;6.580;2023-04-09T00:32:48;8.40;99.90
52030;DHT22;38043;53.224;6.580;2023-04-09T00:35:14;8.30;99.90
52030;DHT22;38043;53.224;6.580;2023-04-09T00:37:40;8.30;99.90
52030;DHT22;38043;53.224;6.580;2023-04-09T00:40:06;8.30;99.90
52030;DHT22;38043;53.224;6.580;2023-04-09T00:42:33;8.30;99.90
52030;DHT22;38043;53.224;6.580;2023-04-09T00:44:59;8.30;99.90
52030;DHT22;38043;53.224;6.580;2023-04-09T00:47:25;8.30;99.90
52030;DHT22;38043;53.224;6.580;2023-04-09T00:49:53;8.30;99.90
52030;DHT22;38043;53.224;6.580;2023-04-09T00:52:18;8.30;99.90
52030;DHT22;38043;53.224;6.580;2023-04-09T00:54:44;8.30;99.90
52030;DHT22;38043;53.224;6.580;2023-04-09T00:57:10;8.30;99.90
52030;DHT22;38043;53.224;6.580;2023-04-09T00:59:37;8.30;99.90
52030;DHT22;38043;53.224;6.580;2023-04-09T01:02:03;8.30;99.90
52030;DHT22;38043;53.224;6.580;2023-04-09T01:04:29;8.30;99.90
52030;DHT22;38043;53.224;6.580;2023-04-09T01:06:59;8.30;99.90
52030;DHT22;38043;53.224;6.580;2023-04-09T01:09:34;8.30;99.90
52030;DHT22;38043;53.224;6.580;2023-04-09T01:12:29;8.30;99.90
52030;DHT22;38043;53.224;6.580;2023-04-09T01:15:09;8.20;99.90
52030;DHT22;38043;53.224;6.580;2023-04-09T01:18:00;8.20;99.90
52030;DHT22;38043;53.224;6.580;2023-04-09T01:20:32;8.20;99.90
52030;DHT22;38043;53.224;6.580;2023-04-09T01:29:17;8.20;99.90
52030;DHT22;38043;53.224;6.580;2023-04-09T01:31:44;8.20;99.90
52030;DHT22;38043;53.224;6.580;2023-04-09T01:34:11;8.20;99.90
52030;DHT22;38043;53.224;6.580;2023-04-09T01:36:38;8.30;99.90
52030;DHT22;38043;53.224;6.580;2023-04-09T01:39:05;8.20;99.90
52030;DHT22;38043;53.224;6.580;2023-04-09T01:41:33;8.20;99.90
52030;DHT22;38043;53.224;6.580;2023-04-09T01:44:01;8.20;99.90
52030;DHT22;38043;53.224;6.580;2023-04-09T01:46:28;8.20;99.90
52030;DHT22;38043;53.224;6.580;2023-04-09T01:48:55;8.20;99.90
52030;DHT22;38043;53.224;6.580;2023-04-09T01:51:21;8.20;99.90
52030;DHT22;38043;53.224;6.580;2023-04-09T01:53:47;8.10;99.90
52030;DHT22;38043;53.224;6.580;2023-04-09T01:56:13;8.20;99.90
52030;DHT22;38043;53.224;6.580;2023-04-09T01:58:39;8.20;99.90
52030;DHT22;38043;53.224;6.580;2023-04-09T02:01:11;8.20;99.90
52030;DHT22;38043;53.224;6.580;2023-04-09T02:04:01;8.10;99.90
52030;DHT22;38043;53.224;6.580;2023-04-09T02:08:52;8.20;99.90
52030;DHT22;38043;53.224;6.580;2023-04-09T02:11:20;8.10;99.90
52030;DHT22;38043;53.224;6.580;2023-04-09T02:13:48;8.10;99.90
52030;DHT22;38043;53.224;6.580;2023-04-09T02:16:16;8.20;99.90
52030;DHT22;38043;53.224;6.580;2023-04-09T02:18:42;8.10;99.90
52030;DHT22;38043;53.224;6.580;2023-04-09T02:21:09;8.10;99.90
52030;DHT22;38043;53.224;6.580;2023-04-09T02:23:35;8.10;99.90
52030;DHT22;38043;53.224;6.580;2023-04-09T02:26:01;8.10;99.90
52030;DHT22;38043;53.224;6.580;2023-04-09T02:28:27;8.20;99.90
52030;DHT22;38043;53.224;6.580;2023-04-09T02:30:52;8.20;99.90
52030;DHT22;38043;53.224;6.580;2023-04-09T02:33:18;8.10;99.90
52030;DHT22;38043;53.224;6.580;2023-04-09T02:35:43;8.10;99.90
52030;DHT22;38043;53.224;6.580;2023-04-09T02:38:09;8.70;99.90
52030;DHT22;38043;53.224;6.580;2023-04-09T02:40:42;8.10;99.90
52030;DHT22;38043;53.224;6.580;2023-04-09T02:43:08;8.00;99.90
52030;DHT22;38043;53.224;6.580;2023-04-09T02:45:34;8.00;99.90
52030;DHT22;38043;53.224;6.580;2023-04-09T02:48:00;8.00;99.90
52030;DHT22;38043;53.224;6.580;2023-04-09T02:50:26;8.00;99.90
52030;DHT22;38043;53.224;6.580;2023-04-09T02:52:51;8.00;99.90
52030;DHT22;38043;53.224;6.580;2023-04-09T02:55:18;8.00;99.90
52030;DHT22;38043;53.224;6.580;2023-04-09T02:57:44;8.00;99.90
52030;DHT22;38043;53.224;6.580;2023-04-09T03:00:10;8.00;99.90
52030;DHT22;38043;53.224;6.580;2023-04-09T03:02:36;8.00;99.90
52030;DHT22;38043;53.224;6.580;2023-04-09T03:05:02;8.00;99.90
52030;DHT22;38043;53.224;6.580;2023-04-09T03:07:28;8.00;99.90
52030;DHT22;38043;53.224;6.580;2023-04-09T03:09:53;7.90;99.90
52030;DHT22;38043;53.224;6.580;2023-04-09T03:12:19;7.90;99.90
52030;DHT22;38043;53.224;6.580;2023-04-09T03:14:44;7.90;99.90
52030;DHT22;38043;53.224;6.580;2023-04-09T03:17:10;7.90;99.90
52030;DHT22;38043;53.224;6.580;2023-04-09T03:19:36;7.90;99.90
52030;DHT22;38043;53.224;6.580;2023-04-09T03:22:01;7.90;99.90
52030;DHT22;38043;53.224;6.580;2023-04-09T03:24:27;7.80;99.90
52030;DHT22;38043;53.224;6.580;2023-04-09T03:26:52;7.80;99.90
52030;DHT22;38043;53.224;6.580;2023-04-09T03:29:18;7.80;99.90
52030;DHT22;38043;53.224;6.580;2023-04-09T03:31:43;7.80;99.90
52030;DHT22;38043;53.224;6.580;2023-04-09T03:34:09;7.80;99.90
52030;DHT22;38043;53.224;6.580;2023-04-09T03:36:35;7.80;99.90
52030;DHT22;38043;53.224;6.580;2023-04-09T03:39:00;7.80;99.90
52030;DHT22;38043;53.224;6.580;2023-04-09T03:41:26;7.70;99.90
52030;DHT22;38043;53.224;6.580;2023-04-09T03:43:52;7.80;99.90
52030;DHT22;38043;53.224;6.580;2023-04-09T03:46:18;7.70;99.90
52030;DHT22;38043;53.224;6.580;2023-04-09T03:48:43;7.70;99.90
52030;DHT22;38043;53.224;6.580;2023-04-09T03:51:13;7.70;99.90
52030;DHT22;38043;53.224;6.580;2023-04-09T03:53:40;7.70;99.90
52030;DHT22;38043;53.224;6.580;2023-04-09T03:56:06;7.70;99.90
52030;DHT22;38043;53.224;6.580;2023-04-09T03:58:32;7.70;99.90
52030;DHT22;38043;53.224;6.580;2023-04-09T04:00:58;7.70;99.90
52030;DHT22;38043;53.224;6.580;2023-04-09T04:03:24;7.70;99.90
52030;DHT22;38043;53.224;6.580;2023-04-09T04:05:49;7.70;99.90
52030;DHT22;38043;53.224;6.580;2023-04-09T04:08:15;7.60;99.90
52030;DHT22;38043;53.224;6.580;2023-04-09T04:10:40;7.60;99.90
52030;DHT22;38043;53.224;6.580;2023-04-09T04:13:06;7.60;99.90
52030;DHT22;38043;53.224;6.580;2023-04-09T04:15:33;7.60;99.90
52030;DHT22;38043;53.224;6.580;2023-04-09T04:17:58;7.60;99.90
52030;DHT22;38043;53.224;6.580;2023-04-09T04:20:24;7.60;99.90
52030;DHT22;38043;53.224;6.580;2023-04-09T04:22:50;7.60;99.90
52030;DHT22;38043;53.224;6.580;2023-04-09T04:25:16;7.60;99.90
52030;DHT22;38043;53.224;6.580;2023-04-09T04:27:42;7.60;99.90
52030;DHT22;38043;53.224;6.580;2023-04-09T04:30:08;7.70;99.90
52030;DHT22;38043;53.224;6.580;2023-04-09T04:32:34;7.60;99.90
52030;DHT22;38043;53.224;6.580;2023-04-09T04:34:59;7.60;99.90
52030;DHT22;38043;53.224;6.580;2023-04-09T04:37:25;7.60;99.90
52030;DHT22;38043;53.224;6.580;2023-04-09T04:39:50;7.60;99.90
52030;DHT22;38043;53.224;6.580;2023-04-09T04:42:16;7.60;99.90
52030;DHT22;38043;53.224;6.580;2023-04-09T04:44:43;7.60;99.90
52030;DHT22;38043;53.224;6.580;2023-04-09T04:47:08;7.70;99.90
52030;DHT22;38043;53.224;6.580;2023-04-09T04:49:34;7.60;99.90
52030;DHT22;38043;53.224;6.580;2023-04-09T04:52:00;7.70;99.90
52030;DHT22;38043;53.224;6.580;2023-04-09T04:54:25;7.60;99.90
52030;DHT22;38043;53.224;6.580;2023-04-09T04:56:51;7.70;99.90
52030;DHT22;38043;53.224;6.580;2023-04-09T04:59:16;7.70;99.90
52030;DHT22;38043;53.224;6.580;2023-04-09T05:01:42;7.70;99.90
52030;DHT22;38043;53.224;6.580;2023-04-09T05:04:08;7.70;99.90
52030;DHT22;38043;53.224;6.580;2023-04-09T05:06:33;7.70;99.90
52030;DHT22;38043;53.224;6.580;2023-04-09T05:08:59;7.70;99.90
52030;DHT22;38043;53.224;6.580;2023-04-09T05:11:29;7.70;99.90
52030;DHT22;38043;53.224;6.580;2023-04-09T05:13:54;7.70;99.90
52030;DHT22;38043;53.224;6.580;2023-04-09T05:16:20;7.70;99.90
52030;DHT22;38043;53.224;6.580;2023-04-09T05:18:46;7.70;99.90
52030;DHT22;38043;53.224;6.580;2023-04-09T05:21:12;7.70;99.90
52030;DHT22;38043;53.224;6.580;2023-04-09T05:23:38;7.70;99.90
52030;DHT22;38043;53.224;6.580;2023-04-09T05:26:03;7.70;99.90
52030;DHT22;38043;53.224;6.580;2023-04-09T05:28:30;7.70;99.90
52030;DHT22;38043;53.224;6.580;2023-04-09T05:30:55;7.80;99.90
52030;DHT22;38043;53.224;6.580;2023-04-09T05:33:21;7.80;99.90
52030;DHT22;38043;53.224;6.580;2023-04-09T05:35:46;7.80;99.90
52030;DHT22;38043;53.224;6.580;2023-04-09T05:38:12;7.80;99.90
52030;DHT22;38043;53.224;6.580;2023-04-09T05:40:38;7.80;99.90
52030;DHT22;38043;53.224;6.580;2023-04-09T05:43:04;7.90;99.90
52030;DHT22;38043;53.224;6.580;2023-04-09T05:45:30;7.90;99.90
52030;DHT22;38043;53.224;6.580;2023-04-09T05:47:56;7.90;99.90
52030;DHT22;38043;53.224;6.580;2023-04-09T05:50:22;7.90;99.90
52030;DHT22;38043;53.224;6.580;2023-04-09T05:52:47;7.90;99.90
52030;DHT22;38043;53.224;6.580;2023-04-09T05:55:13;7.90;99.90
52030;DHT22;38043;53.224;6.580;2023-04-09T05:57:39;7.90;99.90
52030;DHT22;38043;53.224;6.580;2023-04-09T06:00:05;7.90;99.90
52030;DHT22;38043;53.224;6.580;2023-04-09T06:02:32;7.90;99.90
52030;DHT22;38043;53.224;6.580;2023-04-09T06:04:58;7.90;99.90
52030;DHT22;38043;53.224;6.580;2023-04-09T06:07:23;7.90;99.90
52030;DHT22;38043;53.224;6.580;2023-04-09T06:09:49;7.90;99.90
52030;DHT22;38043;53.224;6.580;2023-04-09T06:12:15;8.00;99.90
52030;DHT22;38043;53.224;6.580;2023-04-09T06:14:41;8.00;99.90
52030;DHT22;38043;53.224;6.580;2023-04-09T06:17:07;8.00;99.90
52030;DHT22;38043;53.224;6.580;2023-04-09T06:19:32;8.00;99.90
52030;DHT22;38043;53.224;6.580;2023-04-09T06:21:58;8.00;99.90
52030;DHT22;38043;53.224;6.580;2023-04-09T06:24:24;7.90;99.90
52030;DHT22;38043;53.224;6.580;2023-04-09T06:26:49;8.00;99.90
52030;DHT22;38043;53.224;6.580;2023-04-09T06:29:15;8.00;99.90
52030;DHT22;38043;53.224;6.580;2023-04-09T06:31:40;8.00;99.90
52030;DHT22;38043;53.224;6.580;2023-04-09T06:34:06;8.00;99.90
52030;DHT22;38043;53.224;6.580;2023-04-09T06:36:32;8.00;99.90
52030;DHT22;38043;53.224;6.580;2023-04-09T06:38:59;8.00;99.90
52030;DHT22;38043;53.224;6.580;2023-04-09T06:41:25;8.10;99.90
52030;DHT22;38043;53.224;6.580;2023-04-09T06:43:53;8.00;99.90
52030;DHT22;38043;53.224;6.580;2023-04-09T06:46:19;8.00;99.90
52030;DHT22;38043;53.224;6.580;2023-04-09T06:48:45;8.10;99.90
52030;DHT22;38043;53.224;6.580;2023-04-09T06:51:11;8.10;99.90
52030;DHT22;38043;53.224;6.580;2023-04-09T06:53:37;8.10;99.90
52030;DHT22;38043;53.224;6.580;2023-04-09T06:56:03;8.10;99.90
52030;DHT22;38043;53.224;6.580;2023-04-09T06:58:29;8.10;99.90
52030;DHT22;38043;53.224;6.580;2023-04-09T07:00:55;8.10;99.90
52030;DHT22;38043;53.224;6.580;2023-04-09T07:03:20;8.10;99.90
52030;DHT22;38043;53.224;6.580;2023-04-09T07:05:46;8.10;99.90
52030;DHT22;38043;53.224;6.580;2023-04-09T07:08:13;8.20;99.90
52030;DHT22;38043;53.224;6.580;2023-04-09T07:10:39;8.20;99.90
52030;DHT22;38043;53.224;6.580;2023-04-09T07:13:05;8.30;99.90
52030;DHT22;38043;53.224;6.580;2023-04-09T07:15:31;8.30;99.90
52030;DHT22;38043;53.224;6.580;2023-04-09T07:17:56;8.40;99.90
52030;DHT22;38043;53.224;6.580;2023-04-09T07:20:22;8.40;99.90
52030;DHT22;38043;53.224;6.580;2023-04-09T07:22:48;8.40;99.90
52030;DHT22;38043;53.224;6.580;2023-04-09T07:25:14;8.50;99.90
52030;DHT22;38043;53.224;6.580;2023-04-09T07:27:40;8.50;99.90
52030;DHT22;38043;53.224;6.580;2023-04-09T07:30:07;8.50;99.90
52030;DHT22;38043;53.224;6.580;2023-04-09T07:32:35;8.50;99.90
52030;DHT22;38043;53.224;6.580;2023-04-09T07:35:02;8.50;99.90
52030;DHT22;38043;53.224;6.580;2023-04-09T07:37:29;8.40;99.90
52030;DHT22;38043;53.224;6.580;2023-04-09T07:39:55;8.50;99.90
52030;DHT22;38043;53.224;6.580;2023-04-09T07:42:21;8.50;99.90
52030;DHT22;38043;53.224;6.580;2023-04-09T07:44:46;8.70;99.90
52030;DHT22;38043;53.224;6.580;2023-04-09T07:47:12;8.80;99.90
52030;DHT22;38043;53.224;6.580;2023-04-09T07:49:38;9.00;99.90
52030;DHT22;38043;53.224;6.580;2023-04-09T07:52:04;9.30;99.90
52030;DHT22;38043;53.224;6.580;2023-04-09T07:54:31;9.20;99.90
52030;DHT22;38043;53.224;6.580;2023-04-09T07:56:57;9.30;99.90
52030;DHT22;38043;53.224;6.580;2023-04-09T07:59:23;9.30;99.90
52030;DHT22;38043;53.224;6.580;2023-04-09T08:01:49;9.40;99.90
52030;DHT22;38043;53.224;6.580;2023-04-09T08:04:15;9.40;99.90
52030;DHT22;38043;53.224;6.580;2023-04-09T08:06:40;9.40;99.90
52030;DHT22;38043;53.224;6.580;2023-04-09T08:09:06;9.60;99.90
52030;DHT22;38043;53.224;6.580;2023-04-09T08:11:32;9.50;99.90
52030;DHT22;38043;53.224;6.580;2023-04-09T08:13:57;9.70;99.90
52030;DHT22;38043;53.224;6.580;2023-04-09T08:16:26;9.50;99.90
52030;DHT22;38043;53.224;6.580;2023-04-09T08:18:52;9.60;99.90
52030;DHT22;38043;53.224;6.580;2023-04-09T08:21:18;9.70;99.90
52030;DHT22;38043;53.224;6.580;2023-04-09T08:23:44;9.70;99.90
52030;DHT22;38043;53.224;6.580;2023-04-09T08:26:09;9.70;99.90
52030;DHT22;38043;53.224;6.580;2023-04-09T08:28:35;9.70;99.90
52030;DHT22;38043;53.224;6.580;2023-04-09T08:31:00;9.70;99.90
52030;DHT22;38043;53.224;6.580;2023-04-09T08:33:26;9.70;99.90
52030;DHT22;38043;53.224;6.580;2023-04-09T08:35:52;10.30;99.90
52030;DHT22;38043;53.224;6.580;2023-04-09T08:38:20;10.30;99.90
52030;DHT22;38043;53.224;6.580;2023-04-09T08:40:46;9.70;99.90
52030;DHT22;38043;53.224;6.580;2023-04-09T08:43:14;9.80;99.90
52030;DHT22;38043;53.224;6.580;2023-04-09T08:45:43;9.80;99.90
52030;DHT22;38043;53.224;6.580;2023-04-09T08:48:09;9.80;99.90
52030;DHT22;38043;53.224;6.580;2023-04-09T08:50:37;9.80;99.90
52030;DHT22;38043;53.224;6.580;2023-04-09T08:53:04;9.80;99.90
52030;DHT22;38043;53.224;6.580;2023-04-09T08:55:30;10.00;99.90
52030;DHT22;38043;53.224;6.580;2023-04-09T08:57:59;10.10;99.90
52030;DHT22;38043;53.224;6.580;2023-04-09T09:00:26;10.10;99.90
52030;DHT22;38043;53.224;6.580;2023-04-09T09:03:04;10.20;99.90
52030;DHT22;38043;53.224;6.580;2023-04-09T09:05:45;10.20;99.90
52030;DHT22;38043;53.224;6.580;2023-04-09T09:08:13;10.30;99.90
52030;DHT22;38043;53.224;6.580;2023-04-09T09:10:47;10.50;99.90
52030;DHT22;38043;53.224;6.580;2023-04-09T09:15:41;10.60;99.90
52030;DHT22;38043;53.224;6.580;2023-04-09T09:18:07;10.60;99.90
52030;DHT22;38043;53.224;6.580;2023-04-09T09:20:32;10.60;99.90
52030;DHT22;38043;53.224;6.580;2023-04-09T09:22:58;10.60;99.90
52030;DHT22;38043;53.224;6.580;2023-04-09T09:25:24;10.60;99.90
52030;DHT22;38043;53.224;6.580;2023-04-09T09:27:51;10.70;99.90
52030;DHT22;38043;53.224;6.580;2023-04-09T09:30:22;10.70;99.90
52030;DHT22;38043;53.224;6.580;2023-04-09T09:33:07;10.70;99.90
52030;DHT22;38043;53.224;6.580;2023-04-09T09:35:53;10.80;99.90
52030;DHT22;38043;53.224;6.580;2023-04-09T09:38:19;10.80;99.90
52030;DHT22;38043;53.224;6.580;2023-04-09T09:40:45;10.80;99.90
52030;DHT22;38043;53.224;6.580;2023-04-09T09:43:12;10.70;99.90
52030;DHT22;38043;53.224;6.580;2023-04-09T09:45:39;10.70;99.90
52030;DHT22;38043;53.224;6.580;2023-04-09T09:48:05;10.90;99.90
52030;DHT22;38043;53.224;6.580;2023-04-09T09:50:33;10.90;99.90
52030;DHT22;38043;53.224;6.580;2023-04-09T09:53:06;11.00;99.90
52030;DHT22;38043;53.224;6.580;2023-04-09T09:55:33;11.10;99.90
52030;DHT22;38043;53.224;6.580;2023-04-09T09:58:02;11.20;99.90
52030;DHT22;38043;53.224;6.580;2023-04-09T10:00:31;11.30;99.90
52030;DHT22;38043;53.224;6.580;2023-04-09T10:03:02;11.40;99.90
52030;DHT22;38043;53.224;6.580;2023-04-09T10:05:30;11.60;99.90
52030;DHT22;38043;53.224;6.580;2023-04-09T10:07:57;11.80;99.90
52030;DHT22;38043;53.224;6.580;2023-04-09T10:10:25;12.10;99.90
52030;DHT22;38043;53.224;6.580;2023-04-09T10:12:51;12.20;99.90
52030;DHT22;38043;53.224;6.580;2023-04-09T10:15:18;12.40;99.90
52030;DHT22;38043;53.224;6.580;2023-04-09T10:17:44;12.60;99.90
52030;DHT22;38043;53.224;6.580;2023-04-09T10:20:14;12.90;99.90
52030;DHT22;38043;53.224;6.580;2023-04-09T10:22:47;13.50;99.90
52030;DHT22;38043;53.224;6.580;2023-04-09T10:25:15;14.00;99.90
52030;DHT22;38043;53.224;6.580;2023-04-09T10:27:41;14.50;99.90
52030;DHT22;38043;53.224;6.580;2023-04-09T10:30:33;14.60;99.90
52030;DHT22;38043;53.224;6.580;2023-04-09T10:33:12;14.60;99.90
52030;DHT22;38043;53.224;6.580;2023-04-09T10:35:38;14.70;99.90
52030;DHT22;38043;53.224;6.580;2023-04-09T10:38:08;14.80;99.90
52030;DHT22;38043;53.224;6.580;2023-04-09T10:40:39;14.90;99.90
52030;DHT22;38043;53.224;6.580;2023-04-09T10:43:05;15.00;99.90
52030;DHT22;38043;53.224;6.580;2023-04-09T10:45:39;14.80;99.90
52030;DHT22;38043;53.224;6.580;2023-04-09T10:48:13;14.80;99.90
52030;DHT22;38043;53.224;6.580;2023-04-09T10:50:41;14.70;99.90
52030;DHT22;38043;53.224;6.580;2023-04-09T10:53:20;14.70;99.90
52030;DHT22;38043;53.224;6.580;2023-04-09T10:55:48;14.70;99.90
52030;DHT22;38043;53.224;6.580;2023-04-09T10:58:15;14.60;99.90
52030;DHT22;38043;53.224;6.580;2023-04-09T11:00:43;14.60;99.90
52030;DHT22;38043;53.224;6.580;2023-04-09T11:08:22;15.50;99.90
52030;DHT22;38043;53.224;6.580;2023-04-09T11:10:48;15.20;99.90
52030;DHT22;38043;53.224;6.580;2023-04-09T11:13:15;15.40;99.90
52030;DHT22;38043;53.224;6.580;2023-04-09T11:15:42;15.50;99.90
52030;DHT22;38043;53.224;6.580;2023-04-09T11:18:08;15.90;99.90
52030;DHT22;38043;53.224;6.580;2023-04-09T11:20:39;15.90;99.90
52030;DHT22;38043;53.224;6.580;2023-04-09T11:23:05;16.60;99.90
52030;DHT22;38043;53.224;6.580;2023-04-09T11:25:32;16.70;99.90
52030;DHT22;38043;53.224;6.580;2023-04-09T11:27:58;16.80;99.90
52030;DHT22;38043;53.224;6.580;2023-04-09T11:30:24;16.60;99.90
52030;DHT22;38043;53.224;6.580;2023-04-09T11:32:50;16.30;99.90
52030;DHT22;38043;53.224;6.580;2023-04-09T11:35:18;16.10;99.90
52030;DHT22;38043;53.224;6.580;2023-04-09T11:37:45;15.80;99.90
52030;DHT22;38043;53.224;6.580;2023-04-09T11:40:17;15.60;99.90
52030;DHT22;38043;53.224;6.580;2023-04-09T11:42:44;15.60;99.90
52030;DHT22;38043;53.224;6.580;2023-04-09T11:45:11;16.10;99.90
52030;DHT22;38043;53.224;6.580;2023-04-09T11:47:39;16.60;99.90
52030;DHT22;38043;53.224;6.580;2023-04-09T11:50:09;17.10;99.90
52030;DHT22;38043;53.224;6.580;2023-04-09T11:52:35;17.80;99.90
52030;DHT22;38043;53.224;6.580;2023-04-09T11:55:04;18.10;99.90
52030;DHT22;38043;53.224;6.580;2023-04-09T11:57:39;18.40;99.90
52030;DHT22;38043;53.224;6.580;2023-04-09T12:00:10;18.60;98.90
52030;DHT22;38043;53.224;6.580;2023-04-09T12:02:50;18.70;97.20
52030;DHT22;38043;53.224;6.580;2023-04-09T12:05:27;18.70;98.00
52030;DHT22;38043;53.224;6.580;2023-04-09T12:08:01;18.30;98.60
52030;DHT22;38043;53.224;6.580;2023-04-09T12:10:29;18.70;98.80
52030;DHT22;38043;53.224;6.580;2023-04-09T12:12:59;19.20;98.80
52030;DHT22;38043;53.224;6.580;2023-04-09T12:15:25;20.00;96.80
52030;DHT22;38043;53.224;6.580;2023-04-09T12:17:56;19.60;96.00
52030;DHT22;38043;53.224;6.580;2023-04-09T12:20:33;19.20;94.90
52030;DHT22;38043;53.224;6.580;2023-04-09T12:23:00;19.20;94.00
52030;DHT22;38043;53.224;6.580;2023-04-09T12:25:27;19.00;95.10
52030;DHT22;38043;53.224;6.580;2023-04-09T12:27:54;19.20;95.20
52030;DHT22;38043;53.224;6.580;2023-04-09T12:30:21;19.50;94.90
52030;DHT22;38043;53.224;6.580;2023-04-09T12:32:46;19.40;94.20
52030;DHT22;38043;53.224;6.580;2023-04-09T12:35:13;19.40;94.20
52030;DHT22;38043;53.224;6.580;2023-04-09T12:37:38;19.40;94.00
52030;DHT22;38043;53.224;6.580;2023-04-09T12:40:05;19.70;94.30
52030;DHT22;38043;53.224;6.580;2023-04-09T12:42:31;20.10;92.80
52030;DHT22;38043;53.224;6.580;2023-04-09T12:44:57;19.60;91.70
52030;DHT22;38043;53.224;6.580;2023-04-09T12:47:22;19.60;92.10
52030;DHT22;38043;53.224;6.580;2023-04-09T12:49:48;19.80;91.90
52030;DHT22;38043;53.224;6.580;2023-04-09T12:52:14;19.90;92.80
52030;DHT22;38043;53.224;6.580;2023-04-09T12:54:40;20.50;92.40
52030;DHT22;38043;53.224;6.580;2023-04-09T12:57:07;21.10;91.80
52030;DHT22;38043;53.224;6.580;2023-04-09T12:59:33;21.50;90.00
52030;DHT22;38043;53.224;6.580;2023-04-09T13:01:58;21.40;86.80
52030;DHT22;38043;53.224;6.580;2023-04-09T13:04:24;21.20;86.40
52030;DHT22;38043;53.224;6.580;2023-04-09T13:06:49;20.80;85.60
52030;DHT22;38043;53.224;6.580;2023-04-09T13:09:15;20.50;86.30
52030;DHT22;38043;53.224;6.580;2023-04-09T13:11:41;20.00;87.80
52030;DHT22;38043;53.224;6.580;2023-04-09T13:14:07;19.60;88.00
52030;DHT22;38043;53.224;6.580;2023-04-09T13:16:40;19.60;87.50
52030;DHT22;38043;53.224;6.580;2023-04-09T13:19:07;19.80;87.60
52030;DHT22;38043;53.224;6.580;2023-04-09T13:21:33;20.20;85.70
52030;DHT22;38043;53.224;6.580;2023-04-09T13:23:59;20.20;84.00
52030;DHT22;38043;53.224;6.580;2023-04-09T13:26:25;20.40;86.50
52030;DHT22;38043;53.224;6.580;2023-04-09T13:28:50;20.40;85.90
52030;DHT22;38043;53.224;6.580;2023-04-09T13:31:16;20.20;85.40
52030;DHT22;38043;53.224;6.580;2023-04-09T13:33:42;19.90;85.30
52030;DHT22;38043;53.224;6.580;2023-04-09T13:36:08;19.60;84.90
52030;DHT22;38043;53.224;6.580;2023-04-09T13:38:33;19.20;85.10
52030;DHT22;38043;53.224;6.580;2023-04-09T13:40:59;19.30;86.20
52030;DHT22;38043;53.224;6.580;2023-04-09T13:43:25;19.30;86.10
52030;DHT22;38043;53.224;6.580;2023-04-09T13:45:52;19.70;86.20
52030;DHT22;38043;53.224;6.580;2023-04-09T13:48:19;19.60;83.50
52030;DHT22;38043;53.224;6.580;2023-04-09T13:50:45;18.90;83.90
52030;DHT22;38043;53.224;6.580;2023-04-09T13:53:11;18.50;86.50
52030;DHT22;38043;53.224;6.580;2023-04-09T13:55:37;18.20;87.30
52030;DHT22;38043;53.224;6.580;2023-04-09T13:58:03;17.90;88.00
52030;DHT22;38043;53.224;6.580;2023-04-09T14:00:30;17.30;87.80
52030;DHT22;38043;53.224;6.580;2023-04-09T14:02:56;16.90;88.30
52030;DHT22;38043;53.224;6.580;2023-04-09T14:05:22;16.50;89.60
52030;DHT22;38043;53.224;6.580;2023-04-09T14:07:48;16.10;90.30
52030;DHT22;38043;53.224;6.580;2023-04-09T14:10:14;16.00;90.70
52030;DHT22;38043;53.224;6.580;2023-04-09T14:12:40;15.90;91.20
52030;DHT22;38043;53.224;6.580;2023-04-09T14:15:06;15.70;91.30
52030;DHT22;38043;53.224;6.580;2023-04-09T14:17:32;15.60;91.50
52030;DHT22;38043;53.224;6.580;2023-04-09T14:19:58;15.50;92.20
52030;DHT22;38043;53.224;6.580;2023-04-09T14:22:25;15.40;92.10
52030;DHT22;38043;53.224;6.580;2023-04-09T14:24:50;15.30;91.80
52030;DHT22;38043;53.224;6.580;2023-04-09T14:27:16;15.20;92.50
52030;DHT22;38043;53.224;6.580;2023-04-09T14:29:42;15.30;92.70
52030;DHT22;38043;53.224;6.580;2023-04-09T14:32:07;15.30;92.70
52030;DHT22;38043;53.224;6.580;2023-04-09T14:34:33;15.30;92.70
52030;DHT22;38043;53.224;6.580;2023-04-09T14:36:59;15.30;92.70
52030;DHT22;38043;53.224;6.580;2023-04-09T14:39:25;15.40;92.70
52030;DHT22;38043;53.224;6.580;2023-04-09T14:41:50;15.20;92.80
52030;DHT22;38043;53.224;6.580;2023-04-09T14:44:16;15.10;93.00
52030;DHT22;38043;53.224;6.580;2023-04-09T14:46:42;15.00;92.90
52030;DHT22;38043;53.224;6.580;2023-04-09T14:49:08;15.00;93.00
52030;DHT22;38043;53.224;6.580;2023-04-09T14:51:34;15.00;93.30
52030;DHT22;38043;53.224;6.580;2023-04-09T14:54:00;15.00;93.30
52030;DHT22;38043;53.224;6.580;2023-04-09T14:56:26;15.00;92.70
52030;DHT22;38043;53.224;6.580;2023-04-09T14:58:52;14.90;93.20
52030;DHT22;38043;53.224;6.580;2023-04-09T15:01:18;15.00;93.30
52030;DHT22;38043;53.224;6.580;2023-04-09T15:03:43;15.00;92.90
52030;DHT22;38043;53.224;6.580;2023-04-09T15:06:12;15.00;92.90
52030;DHT22;38043;53.224;6.580;2023-04-09T15:08:38;14.90;92.80
52030;DHT22;38043;53.224;6.580;2023-04-09T15:11:03;14.90;93.00
52030;DHT22;38043;53.224;6.580;2023-04-09T15:13:29;14.90;93.10
52030;DHT22;38043;53.224;6.580;2023-04-09T15:15:55;14.90;93.20
52030;DHT22;38043;53.224;6.580;2023-04-09T15:18:21;14.80;92.80
52030;DHT22;38043;53.224;6.580;2023-04-09T15:20:46;14.60;92.90
52030;DHT22;38043;53.224;6.580;2023-04-09T15:23:12;14.60;93.30
52030;DHT22;38043;53.224;6.580;2023-04-09T15:25:38;14.60;93.40
52030;DHT22;38043;53.224;6.580;2023-04-09T15:28:04;14.50;93.70
52030;DHT22;38043;53.224;6.580;2023-04-09T15:30:30;14.40;93.90
52030;DHT22;38043;53.224;6.580;2023-04-09T15:32:56;14.40;93.80
52030;DHT22;38043;53.224;6.580;2023-04-09T15:35:22;14.20;93.80
52030;DHT22;38043;53.224;6.580;2023-04-09T15:37:54;14.30;94.10
52030;DHT22;38043;53.224;6.580;2023-04-09T15:40:21;14.20;94.00
52030;DHT22;38043;53.224;6.580;2023-04-09T15:42:46;14.20;94.10
52030;DHT22;38043;53.224;6.580;2023-04-09T15:45:15;14.20;94.30
52030;DHT22;38043;53.224;6.580;2023-04-09T15:47:42;14.20;94.10
52030;DHT22;38043;53.224;6.580;2023-04-09T15:50:09;14.30;94.00
52030;DHT22;38043;53.224;6.580;2023-04-09T15:52:34;14.20;93.90
52030;DHT22;38043;53.224;6.580;2023-04-09T15:55:00;14.20;94.00